createdAt,value
2023-11-30T00:01:19.010Z,-2.17
2023-11-30T00:03:45.856Z,-2.17
2023-11-30T00:06:12.689Z,-2.16
2023-11-30T00:08:39.404Z,-2.15
2023-11-30T00:11:07.297Z,-2.14
2023-11-30T00:13:34.009Z,-2.13
2023-11-30T00:16:00.656Z,-2.12
2023-11-30T00:18:31.575Z,-2.11
2023-11-30T00:20:58.364Z,-2.11
2023-11-30T00:23:26.431Z,-2.08
2023-11-30T00:25:54.471Z,-2.07
2023-11-30T00:28:21.193Z,-2.08
2023-11-30T00:30:47.993Z,-2.07
2023-11-30T00:33:14.779Z,-2.03
2023-11-30T00:35:41.602Z,-1.97
2023-11-30T00:38:08.542Z,-1.87
2023-11-30T00:40:35.300Z,-1.79
2023-11-30T00:43:03.221Z,-1.79
2023-11-30T00:45:29.952Z,-1.76
2023-11-30T00:47:56.964Z,-1.76
2023-11-30T00:50:25.142Z,-1.78
2023-11-30T00:52:51.857Z,-1.75
2023-11-30T00:55:18.595Z,-1.78
2023-11-30T00:57:45.303Z,-1.76
2023-11-30T01:00:12.445Z,-1.75
2023-11-30T01:02:39.716Z,-1.77
2023-11-30T01:05:06.661Z,-1.76
2023-11-30T01:07:35.603Z,-1.74
2023-11-30T01:10:02.329Z,-1.74
2023-11-30T01:12:30.186Z,-1.69
2023-11-30T01:14:57.761Z,-1.68
2023-11-30T01:17:24.480Z,-1.66
2023-11-30T01:19:51.324Z,-1.64
2023-11-30T01:22:18.098Z,-1.64
2023-11-30T01:24:45.258Z,-1.66
2023-11-30T01:27:12.156Z,-1.65
2023-11-30T01:29:40.184Z,-1.64
2023-11-30T01:32:07.018Z,-1.65
2023-11-30T01:34:34.131Z,-1.64
2023-11-30T01:37:00.797Z,-1.61
2023-11-30T01:39:27.863Z,-1.59
2023-11-30T01:41:54.670Z,-1.58
2023-11-30T01:44:21.455Z,-1.58
2023-11-30T01:46:48.210Z,-1.56
2023-11-30T01:49:17.002Z,-1.57
2023-11-30T01:51:44.164Z,-1.58
2023-11-30T01:54:11.199Z,-1.57
2023-11-30T01:56:40.648Z,-1.57
2023-11-30T01:59:08.974Z,-1.56
2023-11-30T02:01:36.437Z,-1.58
2023-11-30T02:04:08.538Z,-1.55
2023-11-30T02:06:35.259Z,-1.53
2023-11-30T02:09:03.063Z,-1.51
2023-11-30T02:11:29.802Z,-1.49
2023-11-30T02:13:56.551Z,-1.48
2023-11-30T02:16:24.658Z,-1.48
2023-11-30T02:18:52.448Z,-1.50
2023-11-30T02:21:19.173Z,-1.50
2023-11-30T02:23:46.871Z,-1.47
2023-11-30T02:26:13.804Z,-1.45
2023-11-30T02:28:40.537Z,-1.45
2023-11-30T02:31:07.289Z,-1.42
2023-11-30T02:33:34.206Z,-1.41
2023-11-30T02:36:00.988Z,-1.39
2023-11-30T02:38:27.758Z,-1.35
2023-11-30T02:40:54.754Z,-1.35
2023-11-30T02:43:21.660Z,-1.35
2023-11-30T02:45:48.382Z,-1.34
2023-11-30T02:48:16.231Z,-1.34
2023-11-30T02:50:42.963Z,-1.33
2023-11-30T02:53:09.676Z,-1.31
2023-11-30T02:55:36.368Z,-1.30
2023-11-30T02:58:03.115Z,-1.31
2023-11-30T03:03:38.849Z,-1.29
2023-11-30T03:06:11.940Z,-1.29
2023-11-30T03:08:39.008Z,-1.28
2023-11-30T03:11:05.894Z,-1.26
2023-11-30T03:13:32.540Z,-1.23
2023-11-30T03:16:00.015Z,-1.23
2023-11-30T03:18:27.040Z,-1.21
2023-11-30T03:20:53.785Z,-1.22
2023-11-30T03:23:20.495Z,-1.21
2023-11-30T03:25:47.283Z,-1.20
2023-11-30T03:28:14.107Z,-1.20
2023-11-30T03:30:40.897Z,-1.19
2023-11-30T03:33:07.862Z,-1.17
2023-11-30T03:35:34.741Z,-1.16
2023-11-30T03:38:05.899Z,-1.18
2023-11-30T03:40:33.928Z,-1.12
2023-11-30T03:43:00.645Z,-1.11
2023-11-30T03:45:27.821Z,-1.11
2023-11-30T03:47:54.599Z,-1.10
2023-11-30T03:50:21.387Z,-1.09
2023-11-30T03:52:48.048Z,-1.08
2023-11-30T03:55:15.356Z,-1.05
2023-11-30T03:57:42.000Z,-1.03
2023-11-30T04:00:14.171Z,-1.04
2023-11-30T04:02:42.559Z,-1.06
2023-11-30T04:05:11.850Z,-1.03
2023-11-30T04:07:40.479Z,-1.00
2023-11-30T04:10:08.686Z,-0.99
2023-11-30T04:12:36.484Z,-0.98
2023-11-30T04:15:05.774Z,-0.97
2023-11-30T04:17:41.868Z,-1.00
2023-11-30T04:20:09.989Z,-0.98
2023-11-30T04:22:36.795Z,-0.97
2023-11-30T04:25:03.640Z,-0.95
2023-11-30T04:27:30.419Z,-0.93
2023-11-30T04:29:57.189Z,-0.90
2023-11-30T04:32:23.988Z,-0.88
2023-11-30T04:34:50.703Z,-0.88
2023-11-30T04:37:17.496Z,-0.88
2023-11-30T04:39:45.281Z,-0.87
2023-11-30T04:42:12.320Z,-0.86
2023-11-30T04:44:39.380Z,-0.86
2023-11-30T04:47:06.733Z,-0.84
2023-11-30T04:49:33.853Z,-0.82
2023-11-30T04:52:00.642Z,-0.82
2023-11-30T04:54:28.579Z,-0.80
2023-11-30T04:56:55.421Z,-0.81
2023-11-30T04:59:24.332Z,-0.79
2023-11-30T05:01:53.283Z,-0.80
2023-11-30T05:04:20.093Z,-0.77
2023-11-30T05:06:47.097Z,-0.77
2023-11-30T05:09:14.439Z,-0.75
2023-11-30T05:11:41.181Z,-0.75
2023-11-30T05:14:07.986Z,-0.71
2023-11-30T05:16:34.827Z,-0.71
2023-11-30T05:19:01.625Z,-0.70
2023-11-30T05:21:29.358Z,-0.68
2023-11-30T05:23:56.412Z,-0.68
2023-11-30T05:26:27.063Z,-0.63
2023-11-30T05:28:53.892Z,-0.62
2023-11-30T05:31:20.769Z,-0.61
2023-11-30T05:33:47.569Z,-0.59
2023-11-30T05:36:14.311Z,-0.56
2023-11-30T05:38:42.237Z,-0.54
2023-11-30T05:41:09.964Z,-0.55
2023-11-30T05:43:38.373Z,-0.52
2023-11-30T05:46:06.503Z,-0.48
2023-11-30T05:48:37.369Z,-0.51
2023-11-30T05:51:04.344Z,-0.47
2023-11-30T05:53:31.305Z,-0.48
2023-11-30T05:56:03.479Z,-0.49
2023-11-30T05:58:30.291Z,-0.47
2023-11-30T06:00:58.608Z,-0.47
2023-11-30T06:03:25.836Z,-0.46
2023-11-30T06:05:52.918Z,-0.46
2023-11-30T06:08:19.628Z,-0.49
2023-11-30T06:10:46.498Z,-0.50
2023-11-30T06:13:15.784Z,-0.49
2023-11-30T06:16:02.279Z,-0.50
2023-11-30T06:18:29.091Z,-0.47
2023-11-30T06:20:55.747Z,-0.46
2023-11-30T06:23:22.428Z,-0.45
2023-11-30T06:25:49.567Z,-0.45
2023-11-30T06:28:17.985Z,-0.44
2023-11-30T06:30:45.975Z,-0.44
2023-11-30T06:33:12.728Z,-0.43
2023-11-30T06:36:11.284Z,-0.40
2023-11-30T06:38:38.448Z,-0.41
2023-11-30T06:41:13.656Z,-0.38
2023-11-30T06:43:41.705Z,-0.40
2023-11-30T06:46:08.971Z,-0.38
2023-11-30T06:48:44.245Z,-0.38
2023-11-30T06:51:22.561Z,-0.37
2023-11-30T06:53:49.346Z,-0.37
2023-11-30T06:56:16.729Z,-0.36
2023-11-30T06:58:43.758Z,-0.34
2023-11-30T07:04:20.267Z,-0.34
2023-11-30T07:06:47.111Z,-0.33
2023-11-30T07:11:56.241Z,-0.31
2023-11-30T07:14:23.011Z,-0.31
2023-11-30T07:16:50.100Z,-0.28
2023-11-30T07:19:16.818Z,-0.28
2023-11-30T07:21:43.479Z,-0.28
2023-11-30T07:24:12.370Z,-0.28
2023-11-30T07:26:39.961Z,-0.27
2023-11-30T07:29:07.939Z,-0.25
2023-11-30T07:31:36.519Z,-0.24
2023-11-30T07:37:19.517Z,-0.24
2023-11-30T07:39:46.310Z,-0.25
2023-11-30T07:42:16.752Z,-0.24
2023-11-30T07:44:45.644Z,-0.22
2023-11-30T07:47:12.656Z,-0.20
2023-11-30T07:49:49.344Z,-0.20
2023-11-30T07:52:16.451Z,-0.21
2023-11-30T07:54:44.632Z,-0.19
2023-11-30T07:57:11.707Z,-0.18
2023-11-30T07:59:38.495Z,-0.17
2023-11-30T08:02:05.893Z,-0.13
2023-11-30T08:04:34.880Z,-0.11
2023-11-30T08:07:01.699Z,-0.11
2023-11-30T08:09:29.759Z,-0.09
2023-11-30T08:11:56.485Z,-0.09
2023-11-30T08:14:23.333Z,-0.07
2023-11-30T08:16:50.071Z,-0.06
2023-11-30T08:19:16.877Z,-0.03
2023-11-30T08:21:44.527Z,-0.05
2023-11-30T08:24:11.643Z,-0.01
2023-11-30T08:27:14.819Z,0.03
2023-11-30T08:35:20.229Z,0.10
2023-11-30T08:37:47.053Z,0.15
2023-11-30T08:40:14.189Z,0.20
2023-11-30T08:42:41.105Z,0.20
2023-11-30T08:45:08.428Z,0.25
2023-11-30T08:47:35.292Z,0.27
2023-11-30T08:50:02.539Z,0.29
2023-11-30T08:52:29.272Z,0.37
2023-11-30T09:01:12.502Z,0.42
2023-11-30T09:03:40.889Z,0.44
2023-11-30T09:06:09.363Z,0.48
2023-11-30T09:08:36.341Z,0.48
2023-11-30T09:11:03.167Z,0.54
2023-11-30T09:13:29.894Z,0.55
2023-11-30T09:15:56.745Z,0.58
2023-11-30T09:18:23.564Z,0.59
2023-11-30T09:20:50.341Z,0.62
2023-11-30T09:23:17.081Z,0.64
2023-11-30T09:25:43.815Z,0.69
2023-11-30T09:28:14.682Z,0.72
2023-11-30T09:30:42.561Z,0.75
2023-11-30T09:33:10.032Z,0.80
2023-11-30T09:35:37.727Z,0.84
2023-11-30T09:38:05.117Z,0.85
2023-11-30T09:40:31.831Z,0.91
2023-11-30T09:42:58.588Z,0.93
2023-11-30T09:45:26.126Z,0.94
2023-11-30T09:47:54.325Z,0.93
2023-11-30T09:50:21.314Z,0.99
2023-11-30T09:52:48.267Z,1.02
2023-11-30T09:55:17.210Z,1.07
2023-11-30T09:57:44.263Z,1.11
2023-11-30T10:00:12.884Z,1.14
2023-11-30T10:02:51.682Z,1.20
2023-11-30T10:05:18.407Z,1.27
2023-11-30T10:07:45.159Z,1.36
2023-11-30T10:10:12.604Z,1.39
2023-11-30T10:12:39.934Z,1.43
2023-11-30T10:15:07.115Z,1.44
2023-11-30T10:17:34.279Z,1.47
2023-11-30T10:20:01.081Z,1.47
2023-11-30T10:22:29.218Z,1.47
2023-11-30T10:24:56.047Z,1.47
2023-11-30T10:27:25.713Z,1.48
2023-11-30T10:30:01.103Z,1.50
2023-11-30T10:32:28.984Z,1.54
2023-11-30T10:35:00.542Z,1.55
2023-11-30T10:37:30.190Z,1.58
2023-11-30T10:40:14.506Z,1.62
2023-11-30T10:42:48.750Z,1.62
2023-11-30T10:45:16.834Z,1.66
2023-11-30T10:47:44.984Z,1.68
2023-11-30T10:50:13.708Z,1.72
2023-11-30T10:52:44.721Z,1.74
2023-11-30T10:55:21.471Z,1.74
2023-11-30T10:57:48.710Z,1.76
2023-11-30T11:00:17.884Z,1.80
2023-11-30T11:02:46.769Z,1.83
2023-11-30T11:05:15.548Z,1.84
2023-11-30T11:07:53.178Z,1.85
2023-11-30T11:10:28.428Z,1.86
2023-11-30T11:13:00.596Z,1.85
2023-11-30T11:15:30.231Z,1.90
2023-11-30T11:18:05.019Z,1.90
2023-11-30T11:20:33.769Z,1.90
2023-11-30T11:23:10.199Z,1.92
2023-11-30T11:25:47.291Z,1.91
2023-11-30T11:28:18.650Z,1.92
2023-11-30T11:30:50.024Z,1.90
2023-11-30T11:33:18.804Z,1.89
2023-11-30T11:35:47.296Z,1.90
2023-11-30T11:38:14.584Z,1.91
2023-11-30T11:40:41.968Z,1.92
2023-11-30T11:43:09.416Z,1.92
2023-11-30T11:45:38.612Z,1.92
2023-11-30T11:48:05.859Z,1.95
2023-11-30T11:50:35.596Z,1.95
2023-11-30T11:53:04.838Z,1.95
2023-11-30T11:55:32.101Z,1.92
2023-11-30T11:58:00.161Z,1.96
2023-11-30T12:00:27.398Z,1.98
2023-11-30T12:03:08.092Z,1.98
2023-11-30T12:05:47.292Z,1.98
2023-11-30T12:08:16.453Z,1.99
2023-11-30T12:10:44.900Z,2.00
2023-11-30T12:13:14.018Z,2.00
2023-11-30T12:15:46.837Z,2.02
2023-11-30T12:18:15.494Z,2.02
2023-11-30T12:20:42.303Z,2.00
2023-11-30T12:23:09.040Z,2.04
2023-11-30T12:25:35.776Z,2.05
2023-11-30T12:28:02.485Z,2.05
2023-11-30T12:30:29.176Z,2.09
2023-11-30T12:32:56.068Z,2.10
2023-11-30T12:35:22.774Z,2.12
2023-11-30T12:37:52.554Z,2.11
2023-11-30T12:40:19.414Z,2.15
2023-11-30T12:42:46.290Z,2.15
2023-11-30T12:45:14.392Z,2.15
2023-11-30T12:47:42.109Z,2.16
2023-11-30T12:50:10.687Z,2.16
2023-11-30T12:52:37.650Z,2.15
2023-11-30T12:55:05.415Z,2.13
2023-11-30T13:01:10.490Z,2.16
2023-11-30T13:03:37.254Z,2.17
2023-11-30T13:06:05.361Z,2.16
2023-11-30T13:08:32.093Z,2.16
2023-11-30T13:10:59.554Z,2.17
2023-11-30T13:13:34.178Z,2.18
2023-11-30T13:16:09.023Z,2.17
2023-11-30T13:18:36.048Z,2.17
2023-11-30T13:21:02.854Z,2.20
2023-11-30T13:23:29.567Z,2.21
2023-11-30T13:25:56.312Z,2.18
2023-11-30T13:28:26.234Z,2.21
2023-11-30T13:30:53.853Z,2.21
2023-11-30T13:33:21.783Z,2.23
2023-11-30T13:35:49.858Z,2.22
2023-11-30T13:38:16.518Z,2.21
2023-11-30T13:40:43.183Z,2.22
2023-11-30T13:43:09.892Z,2.24
2023-11-30T13:45:36.577Z,2.23
2023-11-30T13:48:04.366Z,2.26
2023-11-30T13:50:37.492Z,2.24
2023-11-30T13:53:17.124Z,2.24
2023-11-30T13:55:44.865Z,2.26
2023-11-30T13:58:11.752Z,2.24
2023-11-30T14:00:41.548Z,2.24
2023-11-30T14:03:09.654Z,2.24
2023-11-30T14:05:36.408Z,2.26
2023-11-30T14:08:04.982Z,2.23
2023-11-30T14:10:31.707Z,2.23
2023-11-30T14:12:58.658Z,2.22
2023-11-30T14:15:25.859Z,2.23
2023-11-30T14:17:52.501Z,2.24
2023-11-30T14:20:21.186Z,2.24
2023-11-30T14:22:48.400Z,2.23
2023-11-30T14:25:15.143Z,2.24
2023-11-30T14:27:42.506Z,2.23
2023-11-30T14:30:10.966Z,2.26
2023-11-30T14:32:40.567Z,2.27
2023-11-30T14:35:08.942Z,2.24
2023-11-30T14:37:35.728Z,2.24
2023-11-30T14:40:03.072Z,2.26
2023-11-30T14:42:33.159Z,2.24
2023-11-30T14:44:59.942Z,2.23
2023-11-30T14:47:28.158Z,2.24
2023-11-30T14:49:54.896Z,2.24
2023-11-30T14:52:21.781Z,2.21
2023-11-30T14:54:53.536Z,2.23
2023-11-30T14:57:21.157Z,2.24
2023-11-30T14:59:48.463Z,2.24
2023-11-30T15:02:15.627Z,2.24
2023-11-30T15:04:42.392Z,2.24
2023-11-30T15:07:09.316Z,2.24
2023-11-30T15:09:36.219Z,2.26
2023-11-30T15:12:03.011Z,2.23
2023-11-30T15:14:30.564Z,2.22
2023-11-30T15:16:57.341Z,2.22
2023-11-30T15:19:24.871Z,2.22
2023-11-30T15:21:53.128Z,2.19
2023-11-30T15:24:20.457Z,2.14
2023-11-30T15:26:47.112Z,2.14
2023-11-30T15:29:13.855Z,2.10
2023-11-30T15:31:40.569Z,2.03
2023-11-30T15:34:08.375Z,2.00
2023-11-30T15:36:35.165Z,2.00
2023-11-30T15:39:12.574Z,1.95
2023-11-30T15:41:52.362Z,1.94
2023-11-30T15:44:21.898Z,1.88
2023-11-30T15:47:28.070Z,1.84
2023-11-30T15:50:13.491Z,1.80
2023-11-30T15:52:40.864Z,1.78
2023-11-30T15:55:12.005Z,1.76
2023-11-30T15:57:40.454Z,1.74
2023-11-30T16:00:08.904Z,1.71
2023-11-30T16:02:36.802Z,1.65
2023-11-30T16:05:04.235Z,1.61
2023-11-30T16:07:34.167Z,1.54
2023-11-30T16:10:01.044Z,1.50
2023-11-30T16:12:31.461Z,1.44
2023-11-30T16:14:58.144Z,1.39
2023-11-30T16:17:24.861Z,1.32
2023-11-30T16:19:52.918Z,1.27
2023-11-30T16:22:19.722Z,1.21
2023-11-30T16:24:47.840Z,1.08
2023-11-30T16:27:18.041Z,1.05
2023-11-30T16:29:46.065Z,0.94
2023-11-30T16:32:12.971Z,0.85
2023-11-30T16:34:39.676Z,0.80
2023-11-30T16:37:06.627Z,0.74
2023-11-30T16:39:33.455Z,0.68
2023-11-30T16:42:00.278Z,0.69
2023-11-30T16:44:28.008Z,0.68
2023-11-30T16:46:55.712Z,0.67
2023-11-30T16:49:24.997Z,0.66
2023-11-30T16:51:55.603Z,0.65
2023-11-30T16:54:26.297Z,0.66
2023-11-30T16:56:53.012Z,0.64
2023-11-30T16:59:19.728Z,0.66
2023-11-30T17:01:46.454Z,0.66
2023-11-30T17:04:14.000Z,0.67
2023-11-30T17:06:40.760Z,0.69
2023-11-30T17:09:10.000Z,0.69
2023-11-30T17:11:36.782Z,0.70
2023-11-30T17:14:03.551Z,0.70
2023-11-30T17:16:30.231Z,0.69
2023-11-30T17:18:57.439Z,0.72
2023-11-30T17:21:25.238Z,0.72
2023-11-30T17:23:56.000Z,0.74
2023-11-30T17:26:25.101Z,0.76
2023-11-30T17:28:53.510Z,0.78
2023-11-30T17:31:20.424Z,0.80
2023-11-30T17:33:48.116Z,0.81
2023-11-30T17:36:15.452Z,0.82
2023-11-30T17:38:42.263Z,0.84
2023-11-30T17:41:09.690Z,0.83
2023-11-30T17:43:36.860Z,0.81
2023-11-30T17:46:07.426Z,0.80
2023-11-30T17:48:34.355Z,0.79
2023-11-30T17:51:01.303Z,0.78
2023-11-30T17:53:30.398Z,0.77
2023-11-30T17:55:58.704Z,0.75
2023-11-30T17:58:29.890Z,0.73
2023-11-30T18:00:58.771Z,0.72
2023-11-30T18:03:26.330Z,0.67
2023-11-30T18:05:54.320Z,0.66
2023-11-30T18:08:21.876Z,0.64
2023-11-30T18:10:49.785Z,0.62
2023-11-30T18:13:16.929Z,0.58
2023-11-30T18:15:43.846Z,0.55
2023-11-30T18:18:11.052Z,0.53
2023-11-30T18:20:38.376Z,0.45
2023-11-30T18:23:05.533Z,0.43
2023-11-30T18:25:32.637Z,0.45
2023-11-30T18:27:59.449Z,0.42
2023-11-30T18:30:30.506Z,0.39
2023-11-30T18:32:58.888Z,0.35
2023-11-30T18:35:25.783Z,0.27
2023-11-30T18:37:52.709Z,0.20
2023-11-30T18:40:21.167Z,0.14
2023-11-30T18:42:48.135Z,0.07
2023-11-30T18:45:15.238Z,0.00
2023-11-30T18:47:41.918Z,0.01
2023-11-30T18:50:09.010Z,-0.09
2023-11-30T18:52:38.015Z,-0.13
2023-11-30T18:55:05.671Z,-0.17
2023-11-30T18:57:32.537Z,-0.21
2023-11-30T19:00:02.351Z,-0.23
2023-11-30T19:02:29.421Z,-0.28
2023-11-30T19:04:57.473Z,-0.28
2023-11-30T19:07:24.338Z,-0.30
2023-11-30T19:09:52.778Z,-0.29
2023-11-30T19:12:20.081Z,-0.31
2023-11-30T19:14:47.017Z,-0.38
2023-11-30T19:17:13.734Z,-0.37
2023-11-30T19:19:40.522Z,-0.39
2023-11-30T19:25:44.639Z,-0.45
2023-11-30T19:28:13.928Z,-0.45
2023-11-30T19:30:43.385Z,-0.44
2023-11-30T19:33:10.376Z,-0.43
2023-11-30T19:35:38.423Z,-0.42
2023-11-30T19:38:05.396Z,-0.38
2023-11-30T19:40:32.066Z,-0.35
2023-11-30T19:42:59.180Z,-0.33
2023-11-30T19:45:25.916Z,-0.28
2023-11-30T19:47:52.845Z,-0.24
2023-11-30T19:50:19.659Z,-0.23
2023-11-30T19:52:47.190Z,-0.21
2023-11-30T19:55:15.534Z,-0.21
2023-11-30T19:57:42.523Z,-0.16
2023-11-30T20:00:11.704Z,-0.15
2023-11-30T20:02:39.949Z,-0.09
2023-11-30T20:05:06.940Z,-0.08
2023-11-30T20:07:33.607Z,-0.02
2023-11-30T20:10:00.466Z,0.01
2023-11-30T20:12:29.516Z,0.04
2023-11-30T20:14:56.259Z,0.06
2023-11-30T20:17:25.202Z,0.10
2023-11-30T20:19:51.950Z,0.13
2023-11-30T20:22:18.997Z,0.14
2023-11-30T20:24:45.982Z,0.14
2023-11-30T20:27:12.753Z,0.18
2023-11-30T20:29:41.948Z,0.19
2023-11-30T20:32:08.615Z,0.21
2023-11-30T20:34:35.361Z,0.25
2023-11-30T20:37:02.215Z,0.23
2023-11-30T20:39:29.265Z,0.24
2023-11-30T20:41:56.416Z,0.23
2023-11-30T20:44:23.135Z,0.24
2023-11-30T20:46:49.830Z,0.24
2023-11-30T20:49:16.505Z,0.24
2023-11-30T20:51:43.183Z,0.23
2023-11-30T20:54:11.876Z,0.23
2023-11-30T20:56:38.651Z,0.24
2023-11-30T21:02:35.046Z,0.20
2023-11-30T21:05:01.957Z,0.16
2023-11-30T21:07:28.804Z,0.13
2023-11-30T21:09:57.045Z,0.10
2023-11-30T21:12:24.023Z,0.09
2023-11-30T21:14:52.228Z,0.07
2023-11-30T21:17:20.360Z,0.06
2023-11-30T21:19:47.425Z,0.06
2023-11-30T21:22:17.119Z,0.05
2023-11-30T21:24:46.375Z,0.07
2023-11-30T21:27:15.009Z,0.06
2023-11-30T21:29:41.900Z,0.09
2023-11-30T21:32:08.844Z,0.10
2023-11-30T21:34:35.893Z,0.11
2023-11-30T21:37:04.617Z,0.13
2023-11-30T21:39:31.912Z,0.15
2023-11-30T21:41:59.153Z,0.16
2023-11-30T21:44:26.932Z,0.17
2023-11-30T21:46:54.782Z,0.20
2023-11-30T21:49:21.761Z,0.20
2023-11-30T21:51:48.736Z,0.21
2023-11-30T21:54:15.652Z,0.21
2023-11-30T21:56:42.502Z,0.22
2023-11-30T21:59:09.933Z,0.23
2023-11-30T22:01:37.538Z,0.23
2023-11-30T22:04:05.069Z,0.24
2023-11-30T22:06:32.160Z,0.24
2023-11-30T22:08:59.016Z,0.24
2023-11-30T22:11:25.915Z,0.25
2023-11-30T22:13:52.819Z,0.24
2023-11-30T22:16:26.474Z,0.23
2023-11-30T22:19:00.393Z,0.25
2023-11-30T22:21:27.193Z,0.26
2023-11-30T22:23:54.959Z,0.23
2023-11-30T22:26:25.437Z,0.19
2023-11-30T22:28:52.626Z,0.22
2023-11-30T22:31:19.679Z,0.22
2023-11-30T22:33:49.500Z,0.22
2023-11-30T22:36:20.384Z,0.21
2023-11-30T22:38:47.399Z,0.21
2023-11-30T22:41:14.811Z,0.22
2023-11-30T22:43:41.805Z,0.16
2023-11-30T22:46:17.609Z,0.17
2023-11-30T22:48:45.129Z,0.15
2023-11-30T22:51:13.595Z,0.13
2023-11-30T22:53:40.341Z,0.10
2023-11-30T22:56:08.073Z,0.10
2023-11-30T22:58:34.868Z,0.06
2023-11-30T23:01:02.977Z,0.06
2023-11-30T23:03:30.688Z,0.06
2023-11-30T23:05:57.582Z,0.04
2023-11-30T23:08:24.527Z,0.04
2023-11-30T23:10:51.193Z,0.04
2023-11-30T23:13:17.982Z,0.04
2023-11-30T23:15:45.919Z,0.03
2023-11-30T23:18:14.845Z,0.03
2023-11-30T23:20:41.890Z,0.02
2023-11-30T23:23:08.639Z,-0.02
2023-11-30T23:25:35.431Z,0.00
2023-11-30T23:28:02.410Z,-0.01
2023-11-30T23:30:29.274Z,0.01
2023-11-30T23:32:58.155Z,0.02
2023-11-30T23:35:25.039Z,-0.01
2023-11-30T23:37:51.790Z,0.01
2023-11-30T23:40:19.418Z,0.02
2023-11-30T23:42:46.758Z,0.02
2023-11-30T23:45:13.497Z,0.05
2023-11-30T23:47:41.037Z,0.01
2023-11-30T23:50:08.367Z,0.02
2023-11-30T23:52:36.142Z,0.03
2023-11-30T23:55:03.178Z,0.02
2023-11-30T23:57:32.237Z,0.04
2023-11-30T23:59:59.966Z,0.04
